Station info - map view · info · telemetry · weather · raw · status · beacons · messages · bulletins · browse · moving · my account
Callsign, ship name or locator: Clear       
It is possible to search using wildcards (*?) after a prefix. Example: OH*
APRS station OE3PYC-9 - show graphs
Map loading...
Comment: Peter VX-8DE ADL329
Mic-E message: En route
Location: 48°11.89' N 16°33.50' E - locator JN88GE67XN - show map - static map
5.0 miles Southwest bearing 214° from Großhofen (Grosshofen), Politischer Bezirk Gänserndorf, Lower Austria, Austria [?]
6.2 miles South bearing 198° from Parbasdorf, Politischer Bezirk Gänserndorf, Lower Austria, Austria
8.6 miles East bearing 95° from Vienna, Politischer Bezirk Wien (Stadt), Vienna, Austria
25.5 miles West bearing 278° from Bratislava, Bratislavský, Slovakia
Last position: 2018-09-19 06:29:56 EDT (19h7m ago)
2018-09-19 12:29:56 CEST local time at Großhofen, Austria [?]
Altitude: 699 ft
Course: 90°
Device: Yaesu: VX-8 (ht)
Last path: OE3PYC-9>TX1Q89 via WIDE1-1,WIDE2-1,qAR,OE3XXI (good)
Positions stored: 64598
Packet rate: 151 seconds between packets on average during 3778 seconds.
Other SSIDs: OE3PYC-10 OE3PYC-5
Stations near current position of OE3PYC-9 - show more
callsign distance last heard - EDT      callsign distance last heard - EDT
OE1FUC-73.3 miles 302°2018-09-19 12:32:54 OE3REC-93.5 miles 125°2018-09-20 01:25:47
OE3REC-63.5 miles 125°2018-09-18 14:46:06 OE3XXI3.5 miles 125°2018-09-20 01:36:30
MUFLON43.9 miles 244°2018-09-18 10:26:18 CRYSTAL MOZART4.0 miles 246°2018-09-17 12:32:16
BLUE DANUBE4.0 miles 247°2018-09-08 06:44:39 VINDOBONA4.0 miles 249°2018-09-18 10:22:18
VK3ANT-74.1 miles 251°2018-09-01 11:28:37 TATJANA4.1 miles 253°2018-09-19 23:16:24
ANTON4.1 miles 253°2018-09-20 01:26:42 OE3WYC-94.2 miles 285°2018-09-14 16:19:34
A ROSA RIVA4.2 miles 254°2018-09-17 23:48:50 OE3WYC-14.2 miles 285°2018-09-20 01:35:08
OE1PHU-94.2 miles 232°2018-09-17 05:58:22 BEZDAN BTL4.3 miles 257°2018-09-19 14:30:11
OE1CGC-124.3 miles 280°2018-09-18 06:48:37 OE3PDB-14.4 miles 146°2018-09-20 01:29:40
A ROSA DONNA4.4 miles 259°2018-09-17 23:49:50 KIENSTOCK4.4 miles 261°2018-09-11 07:59:37
Stations which heard OE3PYC-9 directly on radio –
callsign pkts first heard - EDT last heard longest (tx => rx) longest at - EDT
OE1XQR 229 2018-09-04 11:23:15 2018-09-19 06:26:51 JN88FH > JN88EE 11.7 miles 204° 2018-09-12 11:40:11
OE6XTR 51 2018-09-04 10:20:42 2018-09-19 06:27:51 JN88FH > JN77VN 60.6 miles 211° 2018-09-12 09:03:36
OE6XRR 10 2018-09-04 09:41:06 2018-09-04 09:57:52 JN77TB > JN77QC 10.0 miles 281° 2018-09-04 09:57:52
OE3XKR 26 2018-09-04 11:34:36 2018-09-19 06:10:41 JN88DC > JN88EN 33.0 miles 6° 2018-09-15 13:13:56
OE1SSU-10 16 2018-09-04 11:26:20 2018-09-15 13:15:56 JN88FH > JN88DD 13.3 miles 209° 2018-09-12 08:58:19
OE6XLR-11 3 2018-09-04 08:44:53 2018-09-04 09:51:58 JN76IQ > JN77OI 50.4 miles 25° 2018-09-04 08:44:53
OE1IWA-10 6 2018-09-15 13:16:57 2018-09-15 13:24:06 JN88ED > JN88ED 1.9 miles 224° 2018-09-15 13:24:06
S55UJE-11 6 2018-09-04 07:14:16 2018-09-04 09:51:59 JN77RA > JN76BL 74.6 miles 240° 2018-09-04 09:51:59
OE3XTR-2 6 2018-09-04 11:02:25 2018-09-04 11:09:44 JN87CR > JN87AT 8.8 miles 305° 2018-09-04 11:04:39
9A7KXP-1 3 2018-09-04 08:44:58 2018-09-04 09:01:19 JN76JV > JN75XV 87.0 miles 142° 2018-09-04 09:01:19
OE1IWA-11 12 2018-09-04 11:25:19 2018-09-15 12:59:32 JN88DB > JN88ED 4.7 miles 36° 2018-09-15 12:59:32
OE1TRB-15 13 2018-09-04 11:34:34 2018-09-15 13:36:29 JN88FF > JN88EF 6.1 miles 292° 2018-09-15 05:31:51
OE3PAS-15 11 2018-09-04 11:16:01 2018-09-15 13:11:52 JN88ED > JN87DX 12.6 miles 198° 2018-09-04 11:32:36
OE3BUB-10 66 2018-09-04 11:52:50 2018-09-19 06:16:56 JN88GE > JN88FG 7.8 miles 322° 2018-09-08 06:33:49
OE3PDB-3 2 2018-09-15 13:17:58 2018-09-15 13:20:00 JN88DC > JN88BG 13.8 miles 310° 2018-09-15 13:17:58
OE8KKK-11 2 2018-09-04 07:18:33 2018-09-04 07:19:43 JN76AO > JN76DM 16.2 miles 112° 2018-09-04 07:18:33
OE3XLR 8 2018-09-04 11:44:44 2018-09-15 13:45:49 JN88GF > JN77TX 47.7 miles 248° 2018-09-12 12:22:21
OE6XBF-11 8 2018-09-04 08:53:54 2018-09-04 10:43:26 JN76JS > JN76XU 53.2 miles 84° 2018-09-04 08:53:54
OE3PDB-10 2 2018-09-15 13:13:54 2018-09-15 13:17:58 JN88DC > JN88BG 15.0 miles 316° 2018-09-15 13:13:54
OE3KJN-10 1 2018-09-04 11:12:49 2018-09-04 11:12:49 JN87CV > JN87EX 10.3 miles 60° 2018-09-04 11:12:49
S59DTB-10 1 2018-09-04 10:44:46 2018-09-04 10:44:46 JN87BL > JN86AO 59.3 miles 182° 2018-09-04 10:44:46
OE6XG-1 9 2018-09-04 09:28:20 2018-09-04 10:15:04 JN77XB > JN77OD 34.7 miles 277° 2018-09-04 10:15:04
OE8LCK-10 10 2018-09-04 07:30:27 2018-09-04 09:52:01 JN77RA > JN76DQ 63.1 miles 248° 2018-09-04 09:52:01
OE8NDR 7 2018-09-04 07:44:12 2018-09-04 08:53:52 JN76JS > JN76IP 9.1 miles 205° 2018-09-04 08:53:52
OE3ZK-13 20 2018-09-04 11:49:49 2018-09-19 06:23:09 JN88GE > JN88DH 13.9 miles 304° 2018-09-07 11:43:11
9A1AYZ-11 6 2018-09-04 09:01:14 2018-09-04 09:51:57 JN76KW > JN75TR 89.8 miles 156° 2018-09-04 09:14:49
OE6XG-2 2 2018-09-04 09:26:13 2018-09-04 10:02:29 JN77UC > JN77OF 24.1 miles 294° 2018-09-04 10:02:29
S50VZZ-10 6 2018-09-04 08:50:47 2018-09-04 09:17:04 JN76KW > JN76OM 33.4 miles 155° 2018-09-04 09:17:04
OE3XXI 161 2018-09-04 11:24:19 2018-09-19 06:29:56 JN88EB > JN88HE 14.8 miles 61° 2018-09-04 11:24:19
OE3WHU-7 18 2018-09-04 11:43:43 2018-09-15 13:40:33 JN88GE > JN88FJ 14.4 miles 336° 2018-09-04 12:08:32
OE3PYC-5 38 2018-09-03 10:24:51 2018-09-04 07:00:31 JN66TO > JN66MQ 29.5 miles 281° 2018-09-04 07:00:31

Only position packets which were originated by the station are shown here. The range statistics show some extra long hops, because some digipeaters do not correctly add themselves to the digipeater path. Please check the raw packets.
About this site
This page shows real-time information collected from the Automatic Position Reporting System Internet network (APRS-IS). APRS is used by amateur (ham) radio operators to transmit real-time position information, weather data, telemetry and messages over the radio. A vehicle equipped with a GPS receiver, a VHF transmitter or HF transceiver and a small computer device called a tracker transmits it's location, speed and course in a small data packet, which is then received by a nearby iGate receiving site which forwards the packet on the Internet. Systems connected to the Internet can send information on the APRS-IS without a radio transmitter, or collect and display information transmitted anywhere in the world.
FAQ · Blog · Discussion group · Linking to aprs.fi · AIS sites · Service status · Database statistics · Advertising on aprs.fi · Technical details · API · Change log · Planned changes · Credits and thanks · Terms Of Service · iPhone/iPad APRS